createdAt,value
2022-09-07T00:00:06.864Z,23.5
2022-09-07T00:01:09.345Z,23.4
2022-09-07T00:02:11.824Z,23.6
2022-09-07T00:03:14.030Z,23.5
2022-09-07T00:04:17.271Z,23.5
2022-09-07T00:05:20.045Z,23.5
2022-09-07T00:06:22.267Z,23.5
2022-09-07T00:07:24.738Z,23.5
2022-09-07T00:08:26.996Z,23.4
2022-09-07T00:09:30.081Z,23.4
2022-09-07T00:10:32.559Z,23.5
2022-09-07T00:11:35.030Z,23.6
2022-09-07T00:12:37.510Z,23.5
2022-09-07T00:13:39.994Z,23.6
2022-09-07T00:14:41.918Z,23.5
2022-09-07T00:15:44.200Z,23.5
2022-09-07T00:16:46.690Z,23.5
2022-09-07T00:17:49.155Z,23.4
2022-09-07T00:18:51.336Z,23.5
2022-09-07T00:19:53.812Z,23.5
2022-09-07T00:20:55.997Z,23.5
2022-09-07T00:21:58.193Z,23.6
2022-09-07T00:23:00.666Z,23.6
2022-09-07T00:24:02.854Z,23.6
2022-09-07T00:25:05.347Z,23.4
2022-09-07T00:26:07.560Z,23.6
2022-09-07T00:27:09.760Z,23.6
2022-09-07T00:28:12.239Z,23.6
2022-09-07T00:29:14.719Z,23.6
2022-09-07T00:30:17.186Z,23.5
2022-09-07T00:31:19.825Z,23.6
2022-09-07T00:32:22.668Z,23.6
2022-09-07T00:33:25.161Z,23.6
2022-09-07T00:34:27.073Z,23.5
2022-09-07T00:35:29.275Z,23.6
2022-09-07T00:36:31.752Z,23.6
2022-09-07T00:37:33.959Z,23.6
2022-09-07T00:38:36.434Z,23.6
2022-09-07T00:39:38.874Z,23.6
2022-09-07T00:40:41.294Z,23.5
2022-09-07T00:41:43.774Z,23.6
2022-09-07T00:42:46.266Z,23.6
2022-09-07T00:43:48.441Z,23.6
2022-09-07T00:44:50.918Z,23.7
2022-09-07T00:45:53.400Z,23.5
2022-09-07T00:46:56.037Z,23.6
2022-09-07T00:47:58.555Z,23.6
2022-09-07T00:49:00.737Z,23.6
2022-09-07T00:50:02.934Z,23.6
2022-09-07T00:51:05.432Z,23.6
2022-09-07T00:52:07.322Z,23.6
2022-09-07T00:53:09.803Z,23.6
2022-09-07T00:54:12.275Z,23.6
2022-09-07T00:55:14.473Z,23.7
2022-09-07T00:56:16.946Z,23.6
2022-09-07T00:57:19.420Z,23.6
2022-09-07T00:58:21.611Z,23.6
2022-09-07T00:59:24.088Z,23.7
2022-09-07T01:00:26.639Z,23.6
2022-09-07T01:01:29.130Z,23.6
2022-09-07T01:02:32.509Z,23.6
2022-09-07T01:03:35.415Z,23.6
2022-09-07T01:04:37.608Z,23.6
2022-09-07T01:05:39.804Z,23.7
2022-09-07T01:06:42.275Z,23.6
2022-09-07T01:07:44.755Z,23.6
2022-09-07T01:08:46.965Z,23.7
2022-09-07T01:09:49.163Z,23.6
2022-09-07T01:10:51.361Z,23.8
2022-09-07T01:11:53.848Z,23.7
2022-09-07T01:12:56.311Z,23.6
2022-09-07T01:13:58.795Z,23.6
2022-09-07T01:15:01.262Z,23.7
2022-09-07T01:16:03.977Z,23.8
2022-09-07T01:17:06.248Z,23.8
2022-09-07T01:18:08.461Z,23.7
2022-09-07T01:19:10.663Z,23.7
2022-09-07T01:20:13.158Z,23.7
2022-09-07T01:21:15.625Z,23.6
2022-09-07T01:22:18.099Z,23.6
2022-09-07T01:23:20.585Z,23.7
2022-09-07T01:24:23.058Z,23.6
2022-09-07T01:25:24.736Z,23.7
2022-09-07T01:26:26.934Z,23.7
2022-09-07T01:27:29.132Z,23.7
2022-09-07T01:28:32.001Z,23.6
2022-09-07T01:29:34.558Z,23.7
2022-09-07T01:30:36.759Z,23.7
2022-09-07T01:31:39.240Z,23.7
2022-09-07T01:32:41.721Z,23.7
2022-09-07T01:33:44.187Z,23.7
2022-09-07T01:34:46.660Z,23.8
2022-09-07T01:35:49.137Z,23.7
2022-09-07T01:36:51.615Z,23.7
2022-09-07T01:38:58.804Z,23.7
2022-09-07T01:40:01.166Z,23.8
2022-09-07T01:41:03.679Z,23.7
2022-09-07T01:42:06.158Z,23.7
2022-09-07T01:43:08.633Z,23.7
2022-09-07T01:44:11.115Z,23.7
2022-09-07T01:45:13.586Z,23.6
2022-09-07T01:46:15.640Z,23.7
2022-09-07T01:47:18.398Z,23.7
2022-09-07T01:48:20.632Z,23.6
2022-09-07T01:49:23.093Z,23.7
2022-09-07T01:50:25.591Z,23.7
2022-09-07T01:51:28.098Z,23.7
2022-09-07T01:52:30.576Z,23.6
2022-09-07T01:53:33.045Z,23.7
2022-09-07T01:54:34.675Z,23.7
2022-09-07T01:55:37.162Z,23.7
2022-09-07T01:56:39.364Z,23.9
2022-09-07T01:57:41.538Z,23.8
2022-09-07T01:58:44.011Z,23.8
2022-09-07T01:59:45.925Z,23.7
2022-09-07T02:00:48.420Z,23.8
2022-09-07T02:01:51.092Z,23.8
2022-09-07T02:02:53.520Z,23.7
2022-09-07T02:03:56.266Z,23.8
2022-09-07T02:04:58.161Z,23.8
2022-09-07T02:06:00.627Z,23.7
2022-09-07T02:07:03.119Z,23.8
2022-09-07T02:08:05.602Z,23.8
2022-09-07T02:09:08.081Z,23.8
2022-09-07T02:10:09.977Z,23.8
2022-09-07T02:11:12.496Z,23.7
2022-09-07T02:12:14.401Z,23.7
2022-09-07T02:13:16.610Z,23.8
2022-09-07T02:14:19.079Z,23.7
2022-09-07T02:15:21.559Z,23.8
2022-09-07T02:16:24.214Z,23.9
2022-09-07T02:17:26.467Z,23.8
2022-09-07T02:18:28.817Z,23.7
2022-09-07T02:19:31.110Z,23.8
2022-09-07T02:20:33.576Z,23.9
2022-09-07T02:21:35.778Z,23.8
2022-09-07T02:22:38.259Z,23.8
2022-09-07T02:23:40.459Z,23.8
2022-09-07T02:24:42.987Z,23.8
2022-09-07T02:25:45.460Z,23.8
2022-09-07T02:26:47.642Z,23.8
2022-09-07T02:27:50.118Z,23.8
2022-09-07T02:28:52.583Z,23.8
2022-09-07T02:29:55.058Z,23.8
2022-09-07T02:30:57.658Z,23.7
2022-09-07T02:32:00.381Z,23.9
2022-09-07T02:33:02.855Z,23.8
2022-09-07T02:34:05.338Z,23.8
2022-09-07T02:35:07.815Z,23.9
2022-09-07T02:36:10.294Z,23.8
2022-09-07T02:37:12.770Z,23.8
2022-09-07T02:38:14.978Z,23.8
2022-09-07T02:39:17.186Z,23.9
2022-09-07T02:40:19.380Z,23.7
2022-09-07T02:41:21.856Z,23.9
2022-09-07T02:42:24.326Z,23.9
2022-09-07T02:43:26.246Z,23.8
2022-09-07T02:44:28.440Z,23.8
2022-09-07T02:45:30.635Z,23.8
2022-09-07T02:46:33.265Z,23.9
2022-09-07T02:47:35.732Z,23.8
2022-09-07T02:48:37.920Z,23.9
2022-09-07T02:49:40.394Z,23.9
2022-09-07T02:50:42.867Z,23.9
2022-09-07T02:51:45.088Z,23.8
2022-09-07T02:52:47.632Z,23.8
2022-09-07T02:53:49.836Z,23.8
2022-09-07T02:54:52.305Z,23.9
2022-09-07T02:55:54.780Z,23.9
2022-09-07T02:56:56.706Z,23.8
2022-09-07T02:57:58.888Z,23.9
2022-09-07T02:59:01.085Z,23.9
2022-09-07T03:00:03.299Z,23.9
2022-09-07T03:01:05.346Z,23.9
2022-09-07T03:02:07.906Z,23.9
2022-09-07T03:03:10.552Z,23.8
2022-09-07T03:04:13.027Z,23.8
2022-09-07T03:05:15.505Z,23.9
2022-09-07T03:06:17.986Z,23.9
2022-09-07T03:07:20.176Z,23.8
2022-09-07T03:08:22.656Z,23.8
2022-09-07T03:09:25.258Z,23.7
2022-09-07T03:10:27.757Z,23.8
2022-09-07T03:11:30.320Z,23.8
2022-09-07T03:12:32.850Z,23.8
2022-09-07T03:13:34.753Z,23.7
2022-09-07T03:14:37.246Z,23.7
2022-09-07T03:15:39.834Z,23.6
2022-09-07T03:16:42.718Z,23.7
2022-09-07T03:17:45.194Z,23.6
2022-09-07T03:18:47.768Z,23.8
2022-09-07T03:19:50.242Z,23.6
2022-09-07T03:20:52.717Z,23.7
2022-09-07T03:21:54.912Z,23.6
2022-09-07T03:22:57.396Z,23.6
2022-09-07T03:23:59.865Z,23.6
2022-09-07T03:25:02.074Z,23.7
2022-09-07T03:26:04.562Z,23.5
2022-09-07T03:27:07.037Z,23.7
2022-09-07T03:28:09.242Z,23.5
2022-09-07T03:29:11.497Z,23.5
2022-09-07T03:30:13.983Z,23.6
2022-09-07T03:31:16.593Z,23.6
2022-09-07T03:32:19.107Z,23.6
2022-09-07T03:33:21.579Z,23.5
2022-09-07T03:34:23.760Z,23.4
2022-09-07T03:35:26.241Z,23.5
2022-09-07T03:36:28.414Z,23.5
2022-09-07T03:37:30.878Z,23.5
2022-09-07T03:38:33.439Z,23.5
2022-09-07T03:39:36.038Z,23.5
2022-09-07T03:40:38.736Z,23.6
2022-09-07T03:41:40.664Z,23.5
2022-09-07T03:42:42.878Z,23.5
2022-09-07T03:43:44.778Z,23.5
2022-09-07T03:44:46.995Z,23.4
2022-09-07T03:45:49.308Z,23.4
2022-09-07T03:46:51.722Z,23.5
2022-09-07T03:47:54.203Z,23.4
2022-09-07T03:48:56.676Z,23.5
2022-09-07T03:49:58.862Z,23.4
2022-09-07T03:51:01.094Z,23.5
2022-09-07T03:52:03.589Z,23.4
2022-09-07T03:53:06.066Z,23.4
2022-09-07T03:54:08.529Z,23.4
2022-09-07T03:55:10.747Z,23.4
2022-09-07T03:56:12.967Z,23.5
2022-09-07T03:57:15.178Z,23.5
2022-09-07T03:58:17.651Z,23.3
2022-09-07T03:59:20.118Z,23.5
2022-09-07T04:00:22.308Z,23.4
2022-09-07T04:01:24.951Z,23.4
2022-09-07T04:02:27.573Z,23.4
2022-09-07T04:03:30.022Z,23.4
2022-09-07T04:04:31.367Z,23.4
2022-09-07T04:05:33.581Z,23.4
2022-09-07T04:06:35.770Z,23.4
2022-09-07T04:07:37.974Z,23.4
2022-09-07T04:08:40.170Z,23.4
2022-09-07T04:09:42.378Z,23.4
2022-09-07T04:10:44.356Z,23.4
2022-09-07T04:11:46.532Z,23.5
2022-09-07T04:12:48.425Z,23.5
2022-09-07T04:13:50.899Z,23.5
2022-09-07T04:14:52.795Z,23.4
2022-09-07T04:15:54.983Z,23.4
2022-09-07T04:16:57.079Z,23.4
2022-09-07T04:17:59.820Z,23.4
2022-09-07T04:19:02.300Z,23.3
2022-09-07T04:20:04.785Z,23.3
2022-09-07T04:21:06.991Z,23.4
2022-09-07T04:22:09.184Z,23.4
2022-09-07T04:23:11.395Z,23.3
2022-09-07T04:24:13.599Z,23.4
2022-09-07T04:25:16.081Z,23.3
2022-09-07T04:26:18.551Z,23.4
2022-09-07T04:27:21.030Z,23.4
2022-09-07T04:28:23.220Z,23.4
2022-09-07T04:29:25.451Z,23.3
2022-09-07T04:30:27.368Z,23.3
2022-09-07T04:31:30.178Z,23.3
2022-09-07T04:32:32.668Z,23.4
2022-09-07T04:33:35.158Z,23.3
2022-09-07T04:34:37.354Z,23.4
2022-09-07T04:35:39.844Z,23.5
2022-09-07T04:36:42.038Z,23.4
2022-09-07T04:37:44.517Z,23.4
2022-09-07T04:38:46.715Z,23.4
2022-09-07T04:39:49.044Z,23.3
2022-09-07T04:40:51.535Z,23.4
2022-09-07T04:41:54.026Z,23.4
2022-09-07T04:42:56.219Z,23.4
2022-09-07T04:43:58.723Z,23.4
2022-09-07T04:45:01.211Z,23.4
2022-09-07T04:46:03.788Z,23.4
2022-09-07T04:47:06.242Z,23.5
2022-09-07T04:48:08.165Z,23.3
2022-09-07T04:49:10.370Z,23.4
2022-09-07T04:50:12.595Z,23.3
2022-09-07T04:51:14.772Z,23.3
2022-09-07T04:52:17.250Z,23.3
2022-09-07T04:53:19.452Z,23.3
2022-09-07T04:54:21.920Z,23.3
2022-09-07T04:55:24.396Z,23.2
2022-09-07T04:56:26.866Z,23.2
2022-09-07T04:57:28.794Z,23.3
2022-09-07T04:58:31.683Z,23.4
2022-09-07T04:59:33.694Z,23.5
2022-09-07T05:00:36.173Z,23.2
2022-09-07T05:01:38.757Z,23.2
2022-09-07T05:02:41.569Z,23.4
2022-09-07T05:03:44.418Z,23.3
2022-09-07T05:04:46.639Z,23.4
2022-09-07T05:05:49.120Z,23.4
2022-09-07T05:06:51.602Z,23.3
2022-09-07T05:07:54.070Z,23.3
2022-09-07T05:08:56.251Z,23.3
2022-09-07T05:09:58.717Z,23.4
2022-09-07T05:11:01.223Z,23.4
2022-09-07T05:12:03.150Z,23.2
2022-09-07T05:13:05.621Z,23.3
2022-09-07T05:14:07.558Z,23.4
2022-09-07T05:15:10.023Z,23.3
2022-09-07T05:16:12.606Z,23.3
2022-09-07T05:17:15.122Z,23.2
2022-09-07T05:18:17.593Z,23.4
2022-09-07T05:19:19.819Z,23.3
2022-09-07T05:20:22.289Z,23.3
2022-09-07T05:21:24.489Z,23.3
2022-09-07T05:22:26.706Z,23.3
2022-09-07T05:23:29.182Z,23.3
2022-09-07T05:24:31.666Z,23.3
2022-09-07T05:25:34.164Z,23.3
2022-09-07T05:26:36.638Z,23.3
2022-09-07T05:27:39.122Z,23.4
2022-09-07T05:28:41.317Z,23.3
2022-09-07T05:31:53.793Z,23.3
2022-09-07T05:32:56.284Z,23.2
2022-09-07T05:35:03.806Z,23.1
2022-09-07T05:36:05.737Z,23.3
2022-09-07T05:37:08.218Z,23.2
2022-09-07T05:38:10.417Z,23.2
2022-09-07T05:39:12.608Z,23.2
2022-09-07T05:40:14.742Z,23.3
2022-09-07T05:41:17.433Z,23.3
2022-09-07T05:42:19.378Z,23.2
2022-09-07T05:43:21.845Z,23.2
2022-09-07T05:45:28.864Z,23.2
2022-09-07T05:46:31.521Z,23.3
2022-09-07T05:47:34.026Z,23.3
2022-09-07T05:48:36.516Z,23.2
2022-09-07T05:49:38.699Z,23.2
2022-09-07T05:50:41.233Z,23.2
2022-09-07T05:51:43.713Z,23.2
2022-09-07T05:52:46.207Z,23.2
2022-09-07T05:53:48.144Z,23.2
2022-09-07T05:54:50.358Z,23.2
2022-09-07T05:55:56.556Z,23.2
2022-09-07T05:56:58.742Z,23.2
2022-09-07T05:58:00.971Z,23.2
2022-09-07T05:59:02.905Z,23.2
2022-09-07T06:00:05.128Z,23.2
2022-09-07T06:01:07.338Z,23.3
2022-09-07T06:02:09.854Z,23.1
2022-09-07T06:03:12.860Z,23.2
2022-09-07T06:04:15.715Z,23.2
2022-09-07T06:05:18.195Z,23.3
2022-09-07T06:06:20.389Z,23.2
2022-09-07T06:07:23.909Z,23.2
2022-09-07T06:08:26.220Z,23.2
2022-09-07T06:11:38.494Z,23.3
2022-09-07T06:12:42.461Z,23.2
2022-09-07T06:13:46.160Z,23.2
2022-09-07T06:14:48.636Z,23.3
2022-09-07T06:15:50.831Z,23.2
2022-09-07T06:16:53.401Z,23.2
2022-09-07T06:17:56.151Z,23.2
2022-09-07T06:18:58.343Z,23.3
2022-09-07T06:20:00.518Z,23.2
2022-09-07T06:21:02.717Z,23.2
2022-09-07T06:22:04.912Z,23.2
2022-09-07T06:23:07.395Z,23.3
2022-09-07T06:24:09.593Z,23.2
2022-09-07T06:25:12.072Z,23.2
2022-09-07T06:26:14.536Z,23.2
2022-09-07T06:27:16.742Z,23.2
2022-09-07T06:28:19.214Z,23.2
2022-09-07T06:29:21.707Z,23.2
2022-09-07T06:30:24.193Z,23.2
2022-09-07T06:31:27.214Z,23.2
2022-09-07T06:33:35.706Z,23.1
2022-09-07T06:34:38.211Z,23.2
2022-09-07T06:35:40.697Z,23.2
2022-09-07T06:36:43.176Z,23.2
2022-09-07T06:37:45.644Z,23.4
2022-09-07T06:38:47.851Z,23.1
2022-09-07T06:39:50.426Z,23.2
2022-09-07T06:43:00.473Z,23.2
2022-09-07T06:44:02.957Z,23.2
2022-09-07T06:45:05.158Z,23.2
2022-09-07T06:47:12.070Z,23.2
2022-09-07T06:48:14.557Z,23.2
2022-09-07T06:49:17.055Z,23.3
2022-09-07T06:50:19.275Z,23.2
2022-09-07T06:51:21.751Z,23.2
2022-09-07T06:52:24.569Z,23.2
2022-09-07T06:55:37.235Z,23.2
2022-09-07T06:56:39.725Z,23.2
2022-09-07T06:57:41.922Z,23.2
2022-09-07T06:58:44.403Z,23.1
2022-09-07T06:59:46.594Z,23.2
2022-09-07T07:00:48.735Z,23.2
2022-09-07T07:01:51.488Z,23.2
2022-09-07T07:02:53.863Z,23.2
2022-09-07T07:03:56.379Z,23.3
2022-09-07T07:04:58.599Z,23.2
2022-09-07T07:06:00.544Z,23.1
2022-09-07T07:07:03.028Z,23.2
2022-09-07T07:08:05.518Z,23.3
2022-09-07T07:09:07.487Z,23.2
2022-09-07T07:10:09.984Z,23.1
2022-09-07T07:11:12.194Z,23.2
2022-09-07T07:12:14.696Z,23.3
2022-09-07T07:13:35.334Z,23.2
2022-09-07T07:15:42.540Z,23.2
2022-09-07T07:16:44.858Z,23.2
2022-09-07T07:18:52.604Z,23.2
2022-09-07T07:19:55.084Z,23.2
2022-09-07T07:20:56.982Z,23.2
2022-09-07T07:23:04.202Z,23.2
2022-09-07T07:24:08.481Z,23.2
2022-09-07T07:25:10.962Z,23.2
2022-09-07T07:26:13.461Z,23.2
2022-09-07T07:27:15.939Z,23.1
2022-09-07T07:29:38.567Z,23
2022-09-07T07:30:40.785Z,23.1
2022-09-07T07:31:43.271Z,23.1
2022-09-07T07:32:45.755Z,23.1
2022-09-07T07:33:48.388Z,23.1
2022-09-07T07:34:51.213Z,23.1
2022-09-07T07:35:53.415Z,23.2
2022-09-07T07:36:55.894Z,23.1
2022-09-07T07:39:03.998Z,23.2
2022-09-07T07:42:16.624Z,23.2
2022-09-07T07:43:19.114Z,23.2
2022-09-07T07:44:21.614Z,23.2
2022-09-07T07:46:29.174Z,23.1
2022-09-07T07:47:32.016Z,23.2
2022-09-07T07:48:34.226Z,23.2
2022-09-07T07:49:36.482Z,23.2
2022-09-07T07:50:39.020Z,23.3
2022-09-07T07:53:51.501Z,23.2
2022-09-07T07:54:53.468Z,23.2
2022-09-07T07:55:55.701Z,23.1
2022-09-07T07:56:57.924Z,23.2
2022-09-07T07:58:00.411Z,23.1
2022-09-07T07:59:02.631Z,23.1
2022-09-07T08:00:05.106Z,23.2
2022-09-07T08:01:07.671Z,23.2
2022-09-07T08:02:10.351Z,23.2
2022-09-07T08:03:12.878Z,23.1
2022-09-07T08:04:15.081Z,23.2
2022-09-07T08:05:17.624Z,23.2
2022-09-07T08:06:20.147Z,23.2
2022-09-07T08:07:22.367Z,23.2
2022-09-07T08:08:24.888Z,23.2
2022-09-07T08:09:27.375Z,23.1
2022-09-07T08:10:29.869Z,23.2
2022-09-07T08:11:32.358Z,23.1
2022-09-07T08:12:34.265Z,23.1
2022-09-07T08:13:36.471Z,23.2
2022-09-07T08:14:38.951Z,23.2
2022-09-07T08:15:41.459Z,23.2
2022-09-07T08:16:43.804Z,23.2
2022-09-07T08:17:46.446Z,23.2
2022-09-07T08:18:48.927Z,23.1
2022-09-07T08:19:51.128Z,23.1
2022-09-07T08:20:53.373Z,23.1
2022-09-07T08:21:55.728Z,23.2
2022-09-07T08:22:58.222Z,23.2
2022-09-07T08:24:00.206Z,23.2
2022-09-07T08:25:02.229Z,23.1
2022-09-07T08:26:04.722Z,23.1
2022-09-07T08:27:06.920Z,23.1
2022-09-07T08:28:09.136Z,23.1
2022-09-07T08:29:11.653Z,23.2
2022-09-07T08:30:13.876Z,23.2
2022-09-07T08:31:16.287Z,23.2
2022-09-07T08:32:19.129Z,23.1
2022-09-07T08:33:21.603Z,23.2
2022-09-07T08:34:23.787Z,23.2
2022-09-07T08:35:26.274Z,23.1
2022-09-07T08:36:28.529Z,23.2
2022-09-07T08:37:31.300Z,23.2
2022-09-07T08:38:33.787Z,23.2
2022-09-07T08:39:35.521Z,23.2
2022-09-07T08:40:38.007Z,23.2
2022-09-07T08:41:39.953Z,23.2
2022-09-07T08:42:42.174Z,23.1
2022-09-07T08:44:49.661Z,23.2
2022-09-07T08:45:52.179Z,23.3
2022-09-07T08:46:54.462Z,23.3
2022-09-07T08:47:57.379Z,23.1
2022-09-07T08:48:59.552Z,23.2
2022-09-07T08:50:01.529Z,23.2
2022-09-07T08:51:04.008Z,23.2
2022-09-07T08:52:06.531Z,23.2
2022-09-07T08:53:09.052Z,23.2
2022-09-07T08:54:11.539Z,23.2
2022-09-07T08:55:14.023Z,23.2
2022-09-07T08:56:15.933Z,23.2
2022-09-07T08:59:28.137Z,23.1
2022-09-07T09:00:30.580Z,23.2
2022-09-07T09:01:34.248Z,23.2
2022-09-07T09:05:53.967Z,23.2
2022-09-07T09:06:57.128Z,23.2
2022-09-07T09:08:00.546Z,23.2
2022-09-07T09:09:03.196Z,23.2
2022-09-07T09:10:05.675Z,23.2
2022-09-07T09:11:07.884Z,23.2
2022-09-07T09:12:10.353Z,23.1
2022-09-07T09:13:12.558Z,23.2
2022-09-07T09:14:14.731Z,23.2
2022-09-07T09:15:16.977Z,23.2
2022-09-07T09:16:19.697Z,23.1
2022-09-07T09:17:22.591Z,23.2
2022-09-07T09:18:25.235Z,23.1
2022-09-07T09:19:27.762Z,23.3
2022-09-07T09:20:29.950Z,23.2
2022-09-07T09:21:31.886Z,23.2
2022-09-07T09:22:33.782Z,23.1
2022-09-07T09:23:36.325Z,23.2
2022-09-07T09:24:38.979Z,23.2
2022-09-07T09:25:41.477Z,23.1
2022-09-07T09:26:43.774Z,23.2
2022-09-07T09:27:46.173Z,23.1
2022-09-07T09:28:48.359Z,23.3
2022-09-07T09:29:50.861Z,23.1
2022-09-07T09:30:52.635Z,23.2
2022-09-07T09:31:55.258Z,23.2
2022-09-07T09:32:57.728Z,23.3
2022-09-07T09:34:00.226Z,23.1
2022-09-07T09:35:02.460Z,23.1
2022-09-07T09:36:04.942Z,23.2
2022-09-07T09:37:07.420Z,23.2
2022-09-07T09:38:09.638Z,23.2
2022-09-07T09:39:11.598Z,23.2
2022-09-07T09:40:14.449Z,23.2
2022-09-07T09:41:17.064Z,23.2
2022-09-07T09:42:19.269Z,23.2
2022-09-07T09:43:21.751Z,23.2
2022-09-07T09:44:24.244Z,23.1
2022-09-07T09:45:26.836Z,23.1
2022-09-07T09:46:29.952Z,23.1
2022-09-07T09:47:32.359Z,23.2
2022-09-07T09:48:35.185Z,23.1
2022-09-07T09:49:37.114Z,23.2
2022-09-07T09:53:54.605Z,23.3
2022-09-07T09:56:02.089Z,23.1
2022-09-07T09:57:04.356Z,23.2
2022-09-07T10:01:24.118Z,23.2
2022-09-07T10:04:40.127Z,23.2
2022-09-07T10:05:42.610Z,23.1
2022-09-07T10:06:45.082Z,23.2
2022-09-07T10:07:47.575Z,23.2
2022-09-07T10:08:49.767Z,23.1
2022-09-07T10:09:52.244Z,23.2
2022-09-07T10:10:54.734Z,23.2
2022-09-07T10:13:01.655Z,23.2
2022-09-07T10:14:04.235Z,23.1
2022-09-07T10:15:06.446Z,23.2
2022-09-07T10:16:09.047Z,23.2
2022-09-07T10:17:11.608Z,23.2
2022-09-07T10:18:14.094Z,23.2
2022-09-07T10:19:16.567Z,23.2
2022-09-07T10:20:18.508Z,23.1
2022-09-07T10:21:20.981Z,23.3
2022-09-07T10:22:23.455Z,23.2
2022-09-07T10:23:25.667Z,23.2
2022-09-07T10:24:28.142Z,23.2
2022-09-07T10:25:30.608Z,23.2
2022-09-07T10:26:32.842Z,23.1
2022-09-07T10:27:35.051Z,23.1
2022-09-07T10:29:42.044Z,23.1
2022-09-07T10:30:44.728Z,23.2
2022-09-07T10:31:47.158Z,23.2
2022-09-07T10:32:49.652Z,23.2
2022-09-07T10:34:57.308Z,23.2
2022-09-07T10:35:59.258Z,23.1
2022-09-07T10:37:01.746Z,23.1
2022-09-07T10:38:03.942Z,23.1
2022-09-07T10:39:06.422Z,23.2
2022-09-07T10:40:08.424Z,23.1
2022-09-07T10:41:10.338Z,23.3
2022-09-07T10:42:12.848Z,23.2
2022-09-07T10:44:20.318Z,23.2
2022-09-07T10:45:22.836Z,23.1
2022-09-07T10:47:30.514Z,23.1
2022-09-07T10:48:33.327Z,23.2
2022-09-07T10:49:35.829Z,23.1
2022-09-07T10:50:38.525Z,23.2
2022-09-07T10:51:40.430Z,23.2
2022-09-07T10:52:42.648Z,23.3
2022-09-07T10:53:45.171Z,23.3
2022-09-07T10:54:53.188Z,23.1
2022-09-07T10:55:55.821Z,23.1
2022-09-07T10:56:58.302Z,23.2
2022-09-07T10:58:00.827Z,23.2
2022-09-07T10:59:04.670Z,23.1
2022-09-07T11:00:09.242Z,23.1
2022-09-07T11:01:13.375Z,23.3
2022-09-07T11:02:16.300Z,23.2
2022-09-07T11:04:24.039Z,23.2
2022-09-07T11:06:31.000Z,23.2
2022-09-07T11:07:32.669Z,23.2
2022-09-07T11:09:39.872Z,23.2
2022-09-07T11:10:41.833Z,23.2
2022-09-07T11:12:49.303Z,23.3
2022-09-07T11:14:56.521Z,23.1
2022-09-07T11:15:59.174Z,23.1
2022-09-07T11:17:02.290Z,23.1
2022-09-07T11:18:05.161Z,23.2
2022-09-07T11:20:12.118Z,23.2
2022-09-07T11:21:14.487Z,23
2022-09-07T11:22:20.985Z,23.3
2022-09-07T11:23:23.472Z,23.1
2022-09-07T11:24:25.408Z,23.2
2022-09-07T11:26:32.617Z,23.1
2022-09-07T11:27:35.130Z,23.1
2022-09-07T11:28:37.622Z,23.2
2022-09-07T11:29:39.863Z,23.2
2022-09-07T11:30:42.268Z,23.2
2022-09-07T11:31:45.065Z,23.1
2022-09-07T11:32:47.569Z,23.3
2022-09-07T11:34:55.243Z,23.2
2022-09-07T11:35:57.506Z,23.1
2022-09-07T11:36:59.714Z,23.1
2022-09-07T11:38:02.207Z,23.2
2022-09-07T11:39:04.691Z,23.2
2022-09-07T11:40:07.468Z,23.2
2022-09-07T11:41:10.491Z,23.1
2022-09-07T11:43:17.746Z,23.2
2022-09-07T11:44:20.262Z,23.1
2022-09-07T11:45:23.379Z,23.2
2022-09-07T11:46:25.774Z,23.1
2022-09-07T11:47:28.541Z,23.2
2022-09-07T11:48:31.583Z,23.2
2022-09-07T11:49:35.780Z,23.2
2022-09-07T11:50:38.027Z,23.2
2022-09-07T11:51:40.225Z,23.2
2022-09-07T11:52:42.703Z,23.1
2022-09-07T11:53:44.905Z,23.1
2022-09-07T11:54:47.134Z,23.2
2022-09-07T11:55:49.332Z,23.1
2022-09-07T11:56:51.805Z,23.2
2022-09-07T11:58:58.727Z,23.1
2022-09-07T12:00:01.209Z,23.2
2022-09-07T12:01:03.706Z,23.2
2022-09-07T12:02:06.322Z,23.2
2022-09-07T12:03:09.264Z,23.2
2022-09-07T12:05:16.902Z,23.2
2022-09-07T12:06:19.423Z,23.2
2022-09-07T12:07:21.912Z,23.2
2022-09-07T12:08:24.399Z,23.1
2022-09-07T12:09:26.675Z,23.2
2022-09-07T12:10:29.159Z,23.2
2022-09-07T12:11:31.636Z,23.2
2022-09-07T12:12:33.848Z,23.3
2022-09-07T12:13:36.075Z,23.2
2022-09-07T12:14:38.272Z,23.1
2022-09-07T12:15:40.592Z,23.2
2022-09-07T12:16:43.367Z,23.1
2022-09-07T12:17:45.854Z,23.1
2022-09-07T12:18:48.108Z,23.2
2022-09-07T12:19:50.654Z,23.2
2022-09-07T12:20:53.266Z,23.1
2022-09-07T12:21:55.809Z,23.2
2022-09-07T12:24:03.011Z,23.2
2022-09-07T12:25:05.227Z,23.2
2022-09-07T12:26:07.137Z,23.1
2022-09-07T12:27:09.614Z,23.3
2022-09-07T12:28:11.828Z,23.1
2022-09-07T12:29:13.796Z,23.2
2022-09-07T12:30:16.277Z,23.2
2022-09-07T12:31:18.908Z,23.2
2022-09-07T12:33:27.404Z,23.2
2022-09-07T12:34:29.909Z,23.2
2022-09-07T12:35:32.383Z,23.2
2022-09-07T12:36:34.403Z,23.2
2022-09-07T12:37:36.990Z,23.2
2022-09-07T12:38:38.920Z,23.2
2022-09-07T12:39:41.506Z,23.2
2022-09-07T12:40:43.954Z,23.2
2022-09-07T12:41:47.956Z,23.3
2022-09-07T12:42:51.158Z,23.2
2022-09-07T12:43:53.649Z,23.2
2022-09-07T12:44:56.141Z,23.3
2022-09-07T12:45:58.714Z,23.3
2022-09-07T12:47:01.449Z,23.2
2022-09-07T12:48:05.132Z,23.2
2022-09-07T12:49:07.341Z,23.1
2022-09-07T12:50:10.666Z,23.2
2022-09-07T12:51:13.452Z,23.2
2022-09-07T12:52:17.185Z,23.1
2022-09-07T12:53:19.746Z,23.3
2022-09-07T12:54:22.249Z,23.2
2022-09-07T12:56:29.721Z,23.2
2022-09-07T12:57:32.200Z,23.2
2022-09-07T12:58:34.452Z,23.3
2022-09-07T12:59:36.637Z,23.2
2022-09-07T13:00:39.132Z,23.2
2022-09-07T13:01:42.844Z,23.2
2022-09-07T13:02:46.281Z,23.2
2022-09-07T13:03:52.262Z,23.1
2022-09-07T13:04:54.670Z,23.2
2022-09-07T13:05:56.640Z,23.2
2022-09-07T13:09:09.150Z,23.2
2022-09-07T13:10:11.538Z,23.1
2022-09-07T13:11:14.013Z,23.1
2022-09-07T13:14:26.482Z,23.2
2022-09-07T13:15:29.122Z,23.3
2022-09-07T13:17:15.461Z,23.2
2022-09-07T13:17:37.527Z,23.2
2022-09-07T13:18:40.015Z,23.2
2022-09-07T13:19:42.532Z,23.3
2022-09-07T13:20:44.726Z,23.2
2022-09-07T13:21:47.190Z,23.2
2022-09-07T13:22:49.101Z,23.3
2022-09-07T13:23:51.578Z,23.2
2022-09-07T13:24:55.005Z,23.3
2022-09-07T13:25:57.593Z,23.2
2022-09-07T13:26:59.802Z,23.1
2022-09-07T13:28:02.265Z,23.3
2022-09-07T13:29:04.822Z,23.2
2022-09-07T13:30:07.825Z,23.2
2022-09-07T13:31:10.547Z,23.2
2022-09-07T13:32:13.934Z,23.3
2022-09-07T13:33:17.404Z,23.3
2022-09-07T13:34:19.888Z,23.2
2022-09-07T13:35:22.135Z,23.3
2022-09-07T13:36:24.610Z,23.2
2022-09-07T13:37:28.468Z,23.2
2022-09-07T13:38:31.006Z,23.1
2022-09-07T13:39:33.310Z,23.2
2022-09-07T13:40:36.057Z,23.1
2022-09-07T13:41:38.400Z,23.2
2022-09-07T13:42:40.904Z,23.2
2022-09-07T13:43:43.149Z,23.2
2022-09-07T13:44:45.645Z,23.2
2022-09-07T13:45:48.042Z,23.2
2022-09-07T13:46:50.498Z,23.3
2022-09-07T13:47:52.975Z,23.3
2022-09-07T13:48:55.509Z,23.2
2022-09-07T13:49:58.022Z,23.3
2022-09-07T13:51:00.582Z,23.3
2022-09-07T13:52:02.773Z,23.3
2022-09-07T13:53:05.255Z,23.2
2022-09-07T13:54:07.730Z,23.2
2022-09-07T13:55:10.217Z,23.2
2022-09-07T13:56:12.436Z,23.3
2022-09-07T13:57:15.043Z,23.3
2022-09-07T13:58:17.513Z,23.3
2022-09-07T13:59:19.729Z,23.2
2022-09-07T14:00:21.633Z,23.2
2022-09-07T14:01:24.435Z,23.3
2022-09-07T14:02:26.760Z,23.3
2022-09-07T14:03:29.605Z,23.2
2022-09-07T14:04:32.273Z,23.2
2022-09-07T14:05:34.518Z,23.2
2022-09-07T14:06:37.010Z,23.1
2022-09-07T14:07:39.499Z,23.2
2022-09-07T14:08:41.977Z,23.2
2022-09-07T14:09:44.179Z,23.2
2022-09-07T14:10:46.124Z,23.2
2022-09-07T14:11:48.654Z,23.2
2022-09-07T14:12:51.192Z,23.2
2022-09-07T14:13:53.706Z,23.2
2022-09-07T14:14:56.194Z,23.3
2022-09-07T14:15:58.427Z,23.2
2022-09-07T14:17:01.145Z,23.2
2022-09-07T14:18:03.675Z,23.2
2022-09-07T14:19:05.875Z,23.2
2022-09-07T14:20:08.129Z,23.3
2022-09-07T14:21:10.625Z,23.3
2022-09-07T14:22:12.823Z,23.3
2022-09-07T14:23:14.763Z,23.2
2022-09-07T14:24:17.236Z,23.4
2022-09-07T14:25:19.451Z,23.1
2022-09-07T14:26:21.654Z,23.1
2022-09-07T14:27:24.209Z,23.2
2022-09-07T14:28:26.474Z,23.2
2022-09-07T14:29:28.964Z,23.1
2022-09-07T14:30:31.555Z,23.1
2022-09-07T14:31:35.286Z,23.2
2022-09-07T14:32:37.750Z,23.2
2022-09-07T14:34:45.220Z,23.3
2022-09-07T14:35:47.843Z,23.3
2022-09-07T14:36:50.041Z,23.2
2022-09-07T14:37:53.211Z,23.2
2022-09-07T14:40:00.889Z,23.2
2022-09-07T14:41:03.832Z,23.2
2022-09-07T14:42:07.572Z,23.2
2022-09-07T14:43:09.686Z,23.3
2022-09-07T14:44:12.218Z,23.2
2022-09-07T14:45:14.729Z,23.2
2022-09-07T14:46:17.050Z,23.2
2022-09-07T14:47:19.751Z,23.1
2022-09-07T14:49:27.226Z,23.1
2022-09-07T14:50:31.437Z,23.3
2022-09-07T14:54:15.742Z,23.2
2022-09-07T14:55:18.350Z,23.2
2022-09-07T14:56:20.820Z,23.3
2022-09-07T14:57:23.292Z,23.3
2022-09-07T14:58:25.806Z,23.3
2022-09-07T14:59:28.694Z,23.1
2022-09-07T15:00:30.892Z,23.2
2022-09-07T15:02:38.500Z,23.2
2022-09-07T15:03:40.679Z,23.2
2022-09-07T15:04:43.266Z,23.3